sensor_id;sensor_type;location;lat;lon;timestamp;P1;durP1;ratioP1;P2;durP2;ratioP2
37445;SDS011;23307;51.136;14.942;2023-01-28T00:01:23;32.57;;;17.17;;
37445;SDS011;23307;51.136;14.942;2023-01-28T00:03:49;29.10;;;16.20;;
37445;SDS011;23307;51.136;14.942;2023-01-28T00:06:15;30.67;;;16.80;;
37445;SDS011;23307;51.136;14.942;2023-01-28T00:08:42;31.37;;;16.97;;
37445;SDS011;23307;51.136;14.942;2023-01-28T00:11:09;41.50;;;16.13;;
37445;SDS011;23307;51.136;14.942;2023-01-28T00:13:35;34.40;;;17.40;;
37445;SDS011;23307;51.136;14.942;2023-01-28T00:16:02;29.27;;;16.27;;
37445;SDS011;23307;51.136;14.942;2023-01-28T00:18:29;52.20;;;16.20;;
37445;SDS011;23307;51.136;14.942;2023-01-28T00:20:57;27.93;;;14.40;;
37445;SDS011;23307;51.136;14.942;2023-01-28T00:23:24;53.20;;;14.40;;
37445;SDS011;23307;51.136;14.942;2023-01-28T00:25:50;35.93;;;13.87;;
37445;SDS011;23307;51.136;14.942;2023-01-28T00:28:15;36.70;;;13.73;;
37445;SDS011;23307;51.136;14.942;2023-01-28T00:30:41;24.93;;;13.77;;
37445;SDS011;23307;51.136;14.942;2023-01-28T00:33:06;37.13;;;13.77;;
37445;SDS011;23307;51.136;14.942;2023-01-28T00:35:32;47.07;;;14.03;;
37445;SDS011;23307;51.136;14.942;2023-01-28T00:37:57;22.20;;;14.03;;
37445;SDS011;23307;51.136;14.942;2023-01-28T00:40:24;33.57;;;14.00;;
37445;SDS011;23307;51.136;14.942;2023-01-28T00:42:49;23.83;;;14.83;;
37445;SDS011;23307;51.136;14.942;2023-01-28T00:45:15;22.63;;;13.17;;
37445;SDS011;23307;51.136;14.942;2023-01-28T00:47:40;21.43;;;13.53;;
37445;SDS011;23307;51.136;14.942;2023-01-28T00:50:06;17.40;;;12.13;;
37445;SDS011;23307;51.136;14.942;2023-01-28T00:52:31;23.73;;;13.90;;
37445;SDS011;23307;51.136;14.942;2023-01-28T00:54:57;21.87;;;13.43;;
37445;SDS011;23307;51.136;14.942;2023-01-28T00:57:22;23.53;;;14.07;;
37445;SDS011;23307;51.136;14.942;2023-01-28T00:59:48;22.17;;;14.13;;
37445;SDS011;23307;51.136;14.942;2023-01-28T01:02:13;22.77;;;14.03;;
37445;SDS011;23307;51.136;14.942;2023-01-28T01:04:39;24.77;;;13.90;;
37445;SDS011;23307;51.136;14.942;2023-01-28T01:07:05;21.00;;;13.57;;
37445;SDS011;23307;51.136;14.942;2023-01-28T01:09:30;20.90;;;13.37;;
37445;SDS011;23307;51.136;14.942;2023-01-28T01:11:56;22.83;;;13.37;;
37445;SDS011;23307;51.136;14.942;2023-01-28T01:14:21;23.43;;;13.60;;
37445;SDS011;23307;51.136;14.942;2023-01-28T01:16:47;20.07;;;12.90;;
37445;SDS011;23307;51.136;14.942;2023-01-28T01:19:12;19.23;;;12.90;;
37445;SDS011;23307;51.136;14.942;2023-01-28T01:21:38;17.50;;;11.43;;
37445;SDS011;23307;51.136;14.942;2023-01-28T01:24:03;18.83;;;11.97;;
37445;SDS011;23307;51.136;14.942;2023-01-28T01:26:29;18.33;;;11.97;;
37445;SDS011;23307;51.136;14.942;2023-01-28T01:28:54;17.27;;;11.33;;
37445;SDS011;23307;51.136;14.942;2023-01-28T01:31:20;17.90;;;11.93;;
37445;SDS011;23307;51.136;14.942;2023-01-28T01:33:47;16.30;;;11.83;;
37445;SDS011;23307;51.136;14.942;2023-01-28T01:36:15;20.23;;;12.57;;
37445;SDS011;23307;51.136;14.942;2023-01-28T01:38:42;20.00;;;12.70;;
37445;SDS011;23307;51.136;14.942;2023-01-28T01:41:08;16.50;;;11.73;;
37445;SDS011;23307;51.136;14.942;2023-01-28T01:43:48;18.37;;;12.53;;
37445;SDS011;23307;51.136;14.942;2023-01-28T01:46:17;19.17;;;12.40;;
37445;SDS011;23307;51.136;14.942;2023-01-28T01:48:47;19.60;;;13.67;;
37445;SDS011;23307;51.136;14.942;2023-01-28T01:51:14;18.47;;;13.20;;
37445;SDS011;23307;51.136;14.942;2023-01-28T01:53:44;21.23;;;13.20;;
37445;SDS011;23307;51.136;14.942;2023-01-28T01:56:15;19.97;;;12.97;;
37445;SDS011;23307;51.136;14.942;2023-01-28T01:58:43;19.57;;;13.07;;
37445;SDS011;23307;51.136;14.942;2023-01-28T02:01:11;19.90;;;13.40;;
37445;SDS011;23307;51.136;14.942;2023-01-28T02:03:42;21.43;;;14.33;;
37445;SDS011;23307;51.136;14.942;2023-01-28T02:06:19;22.23;;;14.87;;
37445;SDS011;23307;51.136;14.942;2023-01-28T02:08:46;20.30;;;13.57;;
37445;SDS011;23307;51.136;14.942;2023-01-28T02:11:11;23.17;;;15.43;;
37445;SDS011;23307;51.136;14.942;2023-01-28T02:13:46;21.60;;;14.50;;
37445;SDS011;23307;51.136;14.942;2023-01-28T02:16:14;20.10;;;14.13;;
37445;SDS011;23307;51.136;14.942;2023-01-28T02:18:40;21.37;;;14.07;;
37445;SDS011;23307;51.136;14.942;2023-01-28T02:21:14;20.83;;;14.13;;
37445;SDS011;23307;51.136;14.942;2023-01-28T02:32:21;23.83;;;14.43;;
37445;SDS011;23307;51.136;14.942;2023-01-28T02:34:55;22.63;;;14.10;;
37445;SDS011;23307;51.136;14.942;2023-01-28T02:40:36;21.33;;;13.40;;
37445;SDS011;23307;51.136;14.942;2023-01-28T02:43:36;21.60;;;14.57;;
37445;SDS011;23307;51.136;14.942;2023-01-28T02:46:14;25.10;;;14.07;;
37445;SDS011;23307;51.136;14.942;2023-01-28T02:49:17;19.27;;;13.30;;
37445;SDS011;23307;51.136;14.942;2023-01-28T02:51:47;23.30;;;13.63;;
37445;SDS011;23307;51.136;14.942;2023-01-28T02:54:19;22.40;;;13.53;;
37445;SDS011;23307;51.136;14.942;2023-01-28T02:57:12;21.43;;;13.83;;
37445;SDS011;23307;51.136;14.942;2023-01-28T03:00:10;20.33;;;13.20;;
37445;SDS011;23307;51.136;14.942;2023-01-28T03:02:50;19.40;;;12.77;;
37445;SDS011;23307;51.136;14.942;2023-01-28T03:07:50;17.33;;;12.10;;
37445;SDS011;23307;51.136;14.942;2023-01-28T03:10:17;17.77;;;12.07;;
37445;SDS011;23307;51.136;14.942;2023-01-28T03:12:46;19.30;;;12.63;;
37445;SDS011;23307;51.136;14.942;2023-01-28T03:15:36;18.50;;;12.80;;
37445;SDS011;23307;51.136;14.942;2023-01-28T03:18:43;19.93;;;13.60;;
37445;SDS011;23307;51.136;14.942;2023-01-28T03:21:37;18.80;;;12.40;;
37445;SDS011;23307;51.136;14.942;2023-01-28T03:24:27;17.87;;;12.57;;
37445;SDS011;23307;51.136;14.942;2023-01-28T03:27:17;17.60;;;11.90;;
37445;SDS011;23307;51.136;14.942;2023-01-28T03:30:08;17.37;;;11.53;;
37445;SDS011;23307;51.136;14.942;2023-01-28T03:32:56;17.13;;;11.67;;
37445;SDS011;23307;51.136;14.942;2023-01-28T03:35:41;17.33;;;11.40;;
37445;SDS011;23307;51.136;14.942;2023-01-28T03:38:28;15.73;;;11.77;;
37445;SDS011;23307;51.136;14.942;2023-01-28T03:40:58;16.07;;;11.33;;
37445;SDS011;23307;51.136;14.942;2023-01-28T03:43:26;16.83;;;12.00;;
37445;SDS011;23307;51.136;14.942;2023-01-28T03:45:52;16.70;;;12.20;;
37445;SDS011;23307;51.136;14.942;2023-01-28T03:48:19;17.87;;;12.37;;
37445;SDS011;23307;51.136;14.942;2023-01-28T03:50:47;17.57;;;11.97;;
37445;SDS011;23307;51.136;14.942;2023-01-28T03:53:13;18.63;;;12.30;;
37445;SDS011;23307;51.136;14.942;2023-01-28T03:55:43;16.67;;;11.90;;
37445;SDS011;23307;51.136;14.942;2023-01-28T03:58:09;16.03;;;11.10;;
37445;SDS011;23307;51.136;14.942;2023-01-28T04:00:35;17.30;;;10.67;;
37445;SDS011;23307;51.136;14.942;2023-01-28T04:03:06;14.87;;;11.13;;
37445;SDS011;23307;51.136;14.942;2023-01-28T04:05:39;17.67;;;12.00;;
37445;SDS011;23307;51.136;14.942;2023-01-28T04:08:09;17.67;;;11.73;;
37445;SDS011;23307;51.136;14.942;2023-01-28T04:10:36;16.77;;;11.30;;
37445;SDS011;23307;51.136;14.942;2023-01-28T04:13:03;16.27;;;12.07;;
37445;SDS011;23307;51.136;14.942;2023-01-28T04:15:28;17.97;;;12.07;;
37445;SDS011;23307;51.136;14.942;2023-01-28T04:17:55;18.63;;;12.20;;
37445;SDS011;23307;51.136;14.942;2023-01-28T04:20:20;16.83;;;12.20;;
37445;SDS011;23307;51.136;14.942;2023-01-28T04:22:46;16.47;;;11.13;;
37445;SDS011;23307;51.136;14.942;2023-01-28T04:25:11;18.23;;;11.50;;
37445;SDS011;23307;51.136;14.942;2023-01-28T04:27:37;15.30;;;11.40;;
37445;SDS011;23307;51.136;14.942;2023-01-28T04:30:02;15.60;;;10.90;;
37445;SDS011;23307;51.136;14.942;2023-01-28T04:32:28;17.63;;;11.63;;
37445;SDS011;23307;51.136;14.942;2023-01-28T04:34:54;14.43;;;10.97;;
37445;SDS011;23307;51.136;14.942;2023-01-28T04:37:19;17.97;;;11.47;;
37445;SDS011;23307;51.136;14.942;2023-01-28T04:39:45;16.63;;;11.83;;
37445;SDS011;23307;51.136;14.942;2023-01-28T04:42:10;19.23;;;12.83;;
37445;SDS011;23307;51.136;14.942;2023-01-28T04:44:35;16.67;;;11.17;;
37445;SDS011;23307;51.136;14.942;2023-01-28T04:47:01;16.97;;;11.87;;
37445;SDS011;23307;51.136;14.942;2023-01-28T04:49:26;16.40;;;11.93;;
37445;SDS011;23307;51.136;14.942;2023-01-28T04:51:52;17.67;;;12.07;;
37445;SDS011;23307;51.136;14.942;2023-01-28T04:54:17;19.60;;;12.03;;
37445;SDS011;23307;51.136;14.942;2023-01-28T04:56:43;18.07;;;11.80;;
37445;SDS011;23307;51.136;14.942;2023-01-28T04:59:08;17.53;;;12.50;;
37445;SDS011;23307;51.136;14.942;2023-01-28T05:01:34;21.97;;;12.90;;
37445;SDS011;23307;51.136;14.942;2023-01-28T05:03:59;20.53;;;12.50;;
37445;SDS011;23307;51.136;14.942;2023-01-28T05:06:29;21.20;;;12.87;;
37445;SDS011;23307;51.136;14.942;2023-01-28T05:08:55;21.50;;;13.30;;
37445;SDS011;23307;51.136;14.942;2023-01-28T05:11:21;18.67;;;12.57;;
37445;SDS011;23307;51.136;14.942;2023-01-28T05:13:46;18.87;;;12.17;;
37445;SDS011;23307;51.136;14.942;2023-01-28T05:16:12;18.57;;;12.13;;
37445;SDS011;23307;51.136;14.942;2023-01-28T05:18:37;17.07;;;12.10;;
37445;SDS011;23307;51.136;14.942;2023-01-28T05:21:03;17.90;;;11.40;;
37445;SDS011;23307;51.136;14.942;2023-01-28T05:23:28;18.93;;;11.90;;
37445;SDS011;23307;51.136;14.942;2023-01-28T05:25:54;17.30;;;11.60;;
37445;SDS011;23307;51.136;14.942;2023-01-28T05:28:19;18.17;;;11.20;;
37445;SDS011;23307;51.136;14.942;2023-01-28T05:30:45;17.90;;;11.67;;
37445;SDS011;23307;51.136;14.942;2023-01-28T05:33:10;17.83;;;11.53;;
37445;SDS011;23307;51.136;14.942;2023-01-28T05:35:36;16.57;;;11.80;;
37445;SDS011;23307;51.136;14.942;2023-01-28T05:38:02;17.57;;;12.17;;
37445;SDS011;23307;51.136;14.942;2023-01-28T05:40:27;19.07;;;11.37;;
37445;SDS011;23307;51.136;14.942;2023-01-28T05:42:53;16.67;;;11.00;;
37445;SDS011;23307;51.136;14.942;2023-01-28T05:45:18;18.00;;;11.10;;
37445;SDS011;23307;51.136;14.942;2023-01-28T05:47:44;16.30;;;10.90;;
37445;SDS011;23307;51.136;14.942;2023-01-28T05:50:09;16.73;;;11.27;;
37445;SDS011;23307;51.136;14.942;2023-01-28T05:52:38;16.00;;;10.60;;
37445;SDS011;23307;51.136;14.942;2023-01-28T05:55:03;19.10;;;11.27;;
37445;SDS011;23307;51.136;14.942;2023-01-28T05:57:30;15.70;;;10.83;;
37445;SDS011;23307;51.136;14.942;2023-01-28T05:59:56;19.93;;;11.20;;
37445;SDS011;23307;51.136;14.942;2023-01-28T06:02:21;16.73;;;10.90;;
37445;SDS011;23307;51.136;14.942;2023-01-28T06:04:47;16.60;;;11.50;;
37445;SDS011;23307;51.136;14.942;2023-01-28T06:07:12;14.20;;;10.47;;
37445;SDS011;23307;51.136;14.942;2023-01-28T06:09:39;16.37;;;10.63;;
37445;SDS011;23307;51.136;14.942;2023-01-28T06:12:05;16.33;;;10.70;;
37445;SDS011;23307;51.136;14.942;2023-01-28T06:14:30;16.10;;;11.00;;
37445;SDS011;23307;51.136;14.942;2023-01-28T06:16:56;15.50;;;10.90;;
37445;SDS011;23307;51.136;14.942;2023-01-28T06:19:21;17.83;;;11.20;;
37445;SDS011;23307;51.136;14.942;2023-01-28T06:21:47;16.30;;;10.33;;
37445;SDS011;23307;51.136;14.942;2023-01-28T06:24:12;15.50;;;10.43;;
37445;SDS011;23307;51.136;14.942;2023-01-28T06:26:38;16.17;;;10.57;;
37445;SDS011;23307;51.136;14.942;2023-01-28T06:29:03;16.70;;;11.43;;
37445;SDS011;23307;51.136;14.942;2023-01-28T06:31:29;17.43;;;11.33;;
37445;SDS011;23307;51.136;14.942;2023-01-28T06:33:54;19.37;;;10.70;;
37445;SDS011;23307;51.136;14.942;2023-01-28T06:36:20;19.83;;;11.23;;
37445;SDS011;23307;51.136;14.942;2023-01-28T06:38:45;18.27;;;12.47;;
37445;SDS011;23307;51.136;14.942;2023-01-28T06:41:11;16.20;;;11.17;;
37445;SDS011;23307;51.136;14.942;2023-01-28T06:43:36;18.23;;;11.40;;
37445;SDS011;23307;51.136;14.942;2023-01-28T06:46:02;16.00;;;10.57;;
37445;SDS011;23307;51.136;14.942;2023-01-28T06:48:27;13.93;;;10.33;;
37445;SDS011;23307;51.136;14.942;2023-01-28T06:50:53;14.03;;;10.17;;
37445;SDS011;23307;51.136;14.942;2023-01-28T06:53:19;14.97;;;10.63;;
37445;SDS011;23307;51.136;14.942;2023-01-28T06:55:45;12.53;;;9.27;;
37445;SDS011;23307;51.136;14.942;2023-01-28T06:58:10;14.37;;;9.80;;
37445;SDS011;23307;51.136;14.942;2023-01-28T07:00:36;14.87;;;10.10;;
37445;SDS011;23307;51.136;14.942;2023-01-28T07:03:02;13.87;;;10.13;;
37445;SDS011;23307;51.136;14.942;2023-01-28T07:05:28;17.70;;;10.07;;
37445;SDS011;23307;51.136;14.942;2023-01-28T07:07:54;13.13;;;9.90;;
37445;SDS011;23307;51.136;14.942;2023-01-28T07:10:19;16.10;;;10.40;;
37445;SDS011;23307;51.136;14.942;2023-01-28T07:12:45;13.70;;;10.00;;
37445;SDS011;23307;51.136;14.942;2023-01-28T07:15:10;16.33;;;11.90;;
37445;SDS011;23307;51.136;14.942;2023-01-28T07:17:42;17.10;;;10.97;;
37445;SDS011;23307;51.136;14.942;2023-01-28T07:20:09;15.10;;;10.30;;
37445;SDS011;23307;51.136;14.942;2023-01-28T07:22:37;14.80;;;10.43;;
37445;SDS011;23307;51.136;14.942;2023-01-28T07:25:05;16.10;;;11.50;;
37445;SDS011;23307;51.136;14.942;2023-01-28T07:27:31;16.40;;;10.80;;
37445;SDS011;23307;51.136;14.942;2023-01-28T07:29:56;13.17;;;9.83;;
37445;SDS011;23307;51.136;14.942;2023-01-28T07:32:22;12.07;;;8.80;;
37445;SDS011;23307;51.136;14.942;2023-01-28T07:34:50;12.40;;;8.17;;
37445;SDS011;23307;51.136;14.942;2023-01-28T07:37:16;12.70;;;7.63;;
37445;SDS011;23307;51.136;14.942;2023-01-28T07:39:41;10.03;;;7.13;;
37445;SDS011;23307;51.136;14.942;2023-01-28T07:42:07;11.00;;;8.17;;
37445;SDS011;23307;51.136;14.942;2023-01-28T07:44:32;10.90;;;7.73;;
37445;SDS011;23307;51.136;14.942;2023-01-28T07:46:59;11.63;;;7.50;;
37445;SDS011;23307;51.136;14.942;2023-01-28T07:49:25;12.00;;;6.83;;
37445;SDS011;23307;51.136;14.942;2023-01-28T07:51:51;10.50;;;7.00;;
37445;SDS011;23307;51.136;14.942;2023-01-28T07:54:16;8.07;;;6.40;;
37445;SDS011;23307;51.136;14.942;2023-01-28T07:56:42;7.70;;;6.37;;
37445;SDS011;23307;51.136;14.942;2023-01-28T07:59:07;8.57;;;6.53;;
37445;SDS011;23307;51.136;14.942;2023-01-28T08:01:33;7.20;;;5.80;;
37445;SDS011;23307;51.136;14.942;2023-01-28T08:03:58;6.47;;;5.40;;
37445;SDS011;23307;51.136;14.942;2023-01-28T08:06:24;6.77;;;5.60;;
37445;SDS011;23307;51.136;14.942;2023-01-28T08:08:49;6.87;;;5.40;;
37445;SDS011;23307;51.136;14.942;2023-01-28T08:11:15;8.77;;;6.00;;
37445;SDS011;23307;51.136;14.942;2023-01-28T08:13:40;7.37;;;5.80;;
37445;SDS011;23307;51.136;14.942;2023-01-28T08:16:06;8.90;;;5.90;;
37445;SDS011;23307;51.136;14.942;2023-01-28T08:18:31;9.43;;;5.60;;
37445;SDS011;23307;51.136;14.942;2023-01-28T08:20:57;6.70;;;5.07;;
37445;SDS011;23307;51.136;14.942;2023-01-28T08:23:24;6.57;;;5.30;;
37445;SDS011;23307;51.136;14.942;2023-01-28T08:25:51;5.00;;;4.47;;
37445;SDS011;23307;51.136;14.942;2023-01-28T08:28:17;5.33;;;4.70;;
37445;SDS011;23307;51.136;14.942;2023-01-28T08:30:43;6.30;;;4.10;;
37445;SDS011;23307;51.136;14.942;2023-01-28T08:33:10;6.80;;;4.97;;
37445;SDS011;23307;51.136;14.942;2023-01-28T08:35:36;5.33;;;4.67;;
37445;SDS011;23307;51.136;14.942;2023-01-28T08:38:03;5.87;;;4.23;;
37445;SDS011;23307;51.136;14.942;2023-01-28T08:40:30;7.27;;;4.40;;
37445;SDS011;23307;51.136;14.942;2023-01-28T08:42:57;5.27;;;4.27;;
37445;SDS011;23307;51.136;14.942;2023-01-28T08:45:23;5.57;;;4.27;;
37445;SDS011;23307;51.136;14.942;2023-01-28T08:48:03;6.87;;;4.83;;
37445;SDS011;23307;51.136;14.942;2023-01-28T08:50:31;6.23;;;5.00;;
37445;SDS011;23307;51.136;14.942;2023-01-28T08:53:00;5.20;;;4.40;;
37445;SDS011;23307;51.136;14.942;2023-01-28T08:55:30;6.50;;;4.97;;
37445;SDS011;23307;51.136;14.942;2023-01-28T08:57:57;6.83;;;5.10;;
37445;SDS011;23307;51.136;14.942;2023-01-28T09:00:30;5.57;;;4.13;;
37445;SDS011;23307;51.136;14.942;2023-01-28T09:02:56;5.50;;;4.37;;
37445;SDS011;23307;51.136;14.942;2023-01-28T09:05:22;6.20;;;4.17;;
37445;SDS011;23307;51.136;14.942;2023-01-28T09:07:47;5.90;;;4.23;;
37445;SDS011;23307;51.136;14.942;2023-01-28T09:10:13;5.73;;;4.57;;
37445;SDS011;23307;51.136;14.942;2023-01-28T09:12:40;7.13;;;5.90;;
37445;SDS011;23307;51.136;14.942;2023-01-28T09:15:06;7.63;;;6.00;;
37445;SDS011;23307;51.136;14.942;2023-01-28T09:17:32;7.57;;;5.47;;
37445;SDS011;23307;51.136;14.942;2023-01-28T09:19:57;8.40;;;5.90;;
37445;SDS011;23307;51.136;14.942;2023-01-28T09:22:23;9.17;;;6.80;;
37445;SDS011;23307;51.136;14.942;2023-01-28T09:24:48;7.40;;;5.67;;
37445;SDS011;23307;51.136;14.942;2023-01-28T09:27:14;7.37;;;5.23;;
37445;SDS011;23307;51.136;14.942;2023-01-28T09:29:39;6.50;;;4.63;;
37445;SDS011;23307;51.136;14.942;2023-01-28T09:32:05;6.67;;;5.37;;
37445;SDS011;23307;51.136;14.942;2023-01-28T09:34:31;7.27;;;4.93;;
37445;SDS011;23307;51.136;14.942;2023-01-28T09:36:57;6.73;;;5.10;;
37445;SDS011;23307;51.136;14.942;2023-01-28T09:39:22;7.90;;;6.00;;
37445;SDS011;23307;51.136;14.942;2023-01-28T09:47:02;7.87;;;6.27;;
37445;SDS011;23307;51.136;14.942;2023-01-28T09:49:33;9.87;;;6.13;;
37445;SDS011;23307;51.136;14.942;2023-01-28T09:52:21;8.33;;;6.03;;
37445;SDS011;23307;51.136;14.942;2023-01-28T09:57:53;6.67;;;5.17;;
37445;SDS011;23307;51.136;14.942;2023-01-28T10:00:21;5.80;;;4.60;;
37445;SDS011;23307;51.136;14.942;2023-01-28T10:06:10;4.60;;;4.00;;
37445;SDS011;23307;51.136;14.942;2023-01-28T10:08:58;5.37;;;4.13;;
37445;SDS011;23307;51.136;14.942;2023-01-28T10:11:46;4.97;;;4.17;;
37445;SDS011;23307;51.136;14.942;2023-01-28T10:14:19;6.37;;;4.57;;
37445;SDS011;23307;51.136;14.942;2023-01-28T10:17:05;6.07;;;4.60;;
37445;SDS011;23307;51.136;14.942;2023-01-28T10:20:25;5.40;;;4.40;;
37445;SDS011;23307;51.136;14.942;2023-01-28T10:22:31;7.13;;;4.80;;
37445;SDS011;23307;51.136;14.942;2023-01-28T10:25:02;5.57;;;4.70;;
37445;SDS011;23307;51.136;14.942;2023-01-28T10:27:32;6.00;;;4.63;;
37445;SDS011;23307;51.136;14.942;2023-01-28T10:30:04;6.47;;;4.37;;
37445;SDS011;23307;51.136;14.942;2023-01-28T10:33:47;6.93;;;4.40;;
37445;SDS011;23307;51.136;14.942;2023-01-28T10:36:04;5.70;;;4.03;;
37445;SDS011;23307;51.136;14.942;2023-01-28T10:38:31;6.20;;;4.80;;
37445;SDS011;23307;51.136;14.942;2023-01-28T10:40:59;4.87;;;4.33;;
37445;SDS011;23307;51.136;14.942;2023-01-28T10:43:29;5.27;;;4.53;;
37445;SDS011;23307;51.136;14.942;2023-01-28T10:45:58;5.97;;;4.83;;
37445;SDS011;23307;51.136;14.942;2023-01-28T10:48:30;6.30;;;4.53;;
37445;SDS011;23307;51.136;14.942;2023-01-28T10:50:59;6.33;;;4.17;;
37445;SDS011;23307;51.136;14.942;2023-01-28T10:53:39;7.77;;;4.50;;
37445;SDS011;23307;51.136;14.942;2023-01-28T10:58:47;5.57;;;3.90;;
37445;SDS011;23307;51.136;14.942;2023-01-28T11:01:22;5.30;;;4.13;;
37445;SDS011;23307;51.136;14.942;2023-01-28T11:03:54;4.77;;;3.73;;
37445;SDS011;23307;51.136;14.942;2023-01-28T11:06:23;5.80;;;4.97;;
37445;SDS011;23307;51.136;14.942;2023-01-28T11:08:53;7.20;;;5.67;;
37445;SDS011;23307;51.136;14.942;2023-01-28T11:11:25;7.10;;;5.30;;
37445;SDS011;23307;51.136;14.942;2023-01-28T11:13:52;6.17;;;4.77;;
37445;SDS011;23307;51.136;14.942;2023-01-28T11:16:22;4.93;;;3.53;;
37445;SDS011;23307;51.136;14.942;2023-01-28T11:18:52;5.73;;;4.80;;
37445;SDS011;23307;51.136;14.942;2023-01-28T11:21:23;6.80;;;3.83;;
37445;SDS011;23307;51.136;14.942;2023-01-28T11:26:18;4.27;;;2.77;;
37445;SDS011;23307;51.136;14.942;2023-01-28T11:28:49;5.00;;;3.50;;
37445;SDS011;23307;51.136;14.942;2023-01-28T11:31:17;4.80;;;3.40;;
37445;SDS011;23307;51.136;14.942;2023-01-28T11:33:52;3.63;;;3.00;;
37445;SDS011;23307;51.136;14.942;2023-01-28T11:36:22;2.80;;;2.50;;
37445;SDS011;23307;51.136;14.942;2023-01-28T11:41:16;2.80;;;2.40;;
37445;SDS011;23307;51.136;14.942;2023-01-28T11:43:46;3.00;;;2.37;;
37445;SDS011;23307;51.136;14.942;2023-01-28T11:48:56;3.17;;;2.50;;
37445;SDS011;23307;51.136;14.942;2023-01-28T11:51:39;2.43;;;2.10;;
37445;SDS011;23307;51.136;14.942;2023-01-28T11:54:21;4.03;;;2.50;;
37445;SDS011;23307;51.136;14.942;2023-01-28T12:00:01;3.40;;;2.93;;
37445;SDS011;23307;51.136;14.942;2023-01-28T12:06:15;4.83;;;3.10;;
37445;SDS011;23307;51.136;14.942;2023-01-28T12:08:41;3.10;;;2.80;;
37445;SDS011;23307;51.136;14.942;2023-01-28T12:11:29;4.77;;;3.80;;
37445;SDS011;23307;51.136;14.942;2023-01-28T12:17:21;6.37;;;4.43;;
37445;SDS011;23307;51.136;14.942;2023-01-28T12:25:15;4.67;;;3.50;;
37445;SDS011;23307;51.136;14.942;2023-01-28T12:30:33;4.80;;;3.97;;
37445;SDS011;23307;51.136;14.942;2023-01-28T12:33:19;4.63;;;3.10;;
37445;SDS011;23307;51.136;14.942;2023-01-28T12:41:59;5.40;;;3.97;;
37445;SDS011;23307;51.136;14.942;2023-01-28T12:44:39;6.57;;;4.27;;
37445;SDS011;23307;51.136;14.942;2023-01-28T12:47:21;5.50;;;3.80;;
37445;SDS011;23307;51.136;14.942;2023-01-28T12:50:04;6.43;;;4.27;;
37445;SDS011;23307;51.136;14.942;2023-01-28T12:52:38;5.47;;;4.00;;
37445;SDS011;23307;51.136;14.942;2023-01-28T12:55:38;6.70;;;4.83;;
37445;SDS011;23307;51.136;14.942;2023-01-28T12:58:22;5.73;;;4.47;;
37445;SDS011;23307;51.136;14.942;2023-01-28T13:00:55;4.83;;;3.83;;
37445;SDS011;23307;51.136;14.942;2023-01-28T13:03:30;7.27;;;4.47;;
37445;SDS011;23307;51.136;14.942;2023-01-28T13:06:05;5.07;;;3.90;;
37445;SDS011;23307;51.136;14.942;2023-01-28T13:08:37;4.83;;;3.73;;
37445;SDS011;23307;51.136;14.942;2023-01-28T13:11:02;6.03;;;4.40;;
37445;SDS011;23307;51.136;14.942;2023-01-28T13:13:30;5.20;;;4.40;;
37445;SDS011;23307;51.136;14.942;2023-01-28T13:15:58;8.90;;;5.33;;
37445;SDS011;23307;51.136;14.942;2023-01-28T13:18:29;5.10;;;3.83;;
37445;SDS011;23307;51.136;14.942;2023-01-28T13:20:56;4.47;;;3.33;;
37445;SDS011;23307;51.136;14.942;2023-01-28T13:23:23;4.40;;;3.07;;
37445;SDS011;23307;51.136;14.942;2023-01-28T13:25:53;3.27;;;2.97;;
37445;SDS011;23307;51.136;14.942;2023-01-28T13:28:32;3.80;;;2.73;;
37445;SDS011;23307;51.136;14.942;2023-01-28T13:31:01;3.73;;;2.80;;
37445;SDS011;23307;51.136;14.942;2023-01-28T13:33:39;3.83;;;2.60;;
37445;SDS011;23307;51.136;14.942;2023-01-28T13:36:16;6.10;;;2.87;;
37445;SDS011;23307;51.136;14.942;2023-01-28T13:39:02;3.03;;;2.20;;
37445;SDS011;23307;51.136;14.942;2023-01-28T13:41:39;3.10;;;2.30;;
37445;SDS011;23307;51.136;14.942;2023-01-28T13:44:19;3.00;;;2.13;;
37445;SDS011;23307;51.136;14.942;2023-01-28T13:46:45;4.97;;;2.27;;
37445;SDS011;23307;51.136;14.942;2023-01-28T13:49:13;2.60;;;2.27;;
37445;SDS011;23307;51.136;14.942;2023-01-28T13:54:43;4.13;;;3.60;;
37445;SDS011;23307;51.136;14.942;2023-01-28T14:00:12;4.53;;;2.97;;
37445;SDS011;23307;51.136;14.942;2023-01-28T14:03:00;3.73;;;3.37;;
37445;SDS011;23307;51.136;14.942;2023-01-28T14:05:54;4.50;;;3.30;;
37445;SDS011;23307;51.136;14.942;2023-01-28T14:08:42;3.80;;;2.80;;
37445;SDS011;23307;51.136;14.942;2023-01-28T14:14:12;4.90;;;3.00;;
37445;SDS011;23307;51.136;14.942;2023-01-28T14:17:16;3.40;;;3.10;;
37445;SDS011;23307;51.136;14.942;2023-01-28T14:19:59;6.73;;;4.40;;
37445;SDS011;23307;51.136;14.942;2023-01-28T14:22:25;3.23;;;2.60;;
37445;SDS011;23307;51.136;14.942;2023-01-28T14:24:51;3.87;;;2.13;;
37445;SDS011;23307;51.136;14.942;2023-01-28T14:27:20;3.73;;;2.53;;
37445;SDS011;23307;51.136;14.942;2023-01-28T14:30:07;4.20;;;3.10;;
37445;SDS011;23307;51.136;14.942;2023-01-28T14:32:50;5.60;;;4.60;;
37445;SDS011;23307;51.136;14.942;2023-01-28T14:35:18;4.70;;;3.77;;
37445;SDS011;23307;51.136;14.942;2023-01-28T14:37:52;6.60;;;5.53;;
37445;SDS011;23307;51.136;14.942;2023-01-28T14:40:18;6.13;;;4.10;;
37445;SDS011;23307;51.136;14.942;2023-01-28T14:42:46;7.33;;;4.63;;
37445;SDS011;23307;51.136;14.942;2023-01-28T14:50:46;3.83;;;2.93;;
37445;SDS011;23307;51.136;14.942;2023-01-28T14:56:28;3.80;;;3.17;;
37445;SDS011;23307;51.136;14.942;2023-01-28T14:59:14;8.53;;;4.93;;
37445;SDS011;23307;51.136;14.942;2023-01-28T15:01:46;6.10;;;3.63;;
37445;SDS011;23307;51.136;14.942;2023-01-28T15:04:21;5.33;;;3.90;;
37445;SDS011;23307;51.136;14.942;2023-01-28T15:06:54;7.47;;;4.40;;
37445;SDS011;23307;51.136;14.942;2023-01-28T15:09:21;5.23;;;3.23;;
37445;SDS011;23307;51.136;14.942;2023-01-28T15:11:48;2.53;;;2.20;;
37445;SDS011;23307;51.136;14.942;2023-01-28T15:14:28;2.97;;;2.20;;
37445;SDS011;23307;51.136;14.942;2023-01-28T15:16:55;3.80;;;2.50;;
37445;SDS011;23307;51.136;14.942;2023-01-28T15:19:29;4.33;;;3.20;;
37445;SDS011;23307;51.136;14.942;2023-01-28T15:21:58;2.53;;;2.00;;
37445;SDS011;23307;51.136;14.942;2023-01-28T15:24:26;3.50;;;2.00;;
37445;SDS011;23307;51.136;14.942;2023-01-28T15:26:52;2.00;;;1.80;;
37445;SDS011;23307;51.136;14.942;2023-01-28T15:29:24;3.10;;;2.50;;
37445;SDS011;23307;51.136;14.942;2023-01-28T15:31:54;2.60;;;2.27;;
37445;SDS011;23307;51.136;14.942;2023-01-28T15:34:20;4.97;;;3.53;;
37445;SDS011;23307;51.136;14.942;2023-01-28T15:36:46;8.67;;;6.20;;
37445;SDS011;23307;51.136;14.942;2023-01-28T15:39:18;5.33;;;3.70;;
37445;SDS011;23307;51.136;14.942;2023-01-28T15:41:51;3.77;;;2.70;;
37445;SDS011;23307;51.136;14.942;2023-01-28T15:44:37;5.87;;;3.80;;
37445;SDS011;23307;51.136;14.942;2023-01-28T15:47:19;5.87;;;4.87;;
37445;SDS011;23307;51.136;14.942;2023-01-28T15:49:48;11.03;;;6.73;;
37445;SDS011;23307;51.136;14.942;2023-01-28T15:52:17;8.73;;;6.63;;
37445;SDS011;23307;51.136;14.942;2023-01-28T15:54:44;9.30;;;6.10;;
37445;SDS011;23307;51.136;14.942;2023-01-28T15:57:24;4.17;;;3.50;;